Time;durP1;ratioP1;P1;durP2;ratioP2;P2;SDS_P1;SDS_P2;PMS_P1;PMS_P2;Temp;Humidity;BMP_temperature;BMP_pressure;BME280_temperature;BME280_humidity;BME280_pressure;Samples;Min_cycle;Max_cycle;Signal;HPM_P1;HPM_P2
2022/08/15 00:01:30;;;;;;;5.40;1.50;;;;;;;;;;8375202;28;20044;-58
2022/08/15 00:05:32;;;;;;;5.53;1.70;;;;;;;;;;8374724;28;20187;-58
2022/08/15 00:09:32;;;;;;;3.30;1.50;;;;;;;;;;8372319;28;20033;-58
2022/08/15 00:13:32;;;;;;;4.88;1.70;;;;;;;;;;8370857;28;20037;-58
2022/08/15 00:17:34;;;;;;;5.10;1.70;;;;;;;;;;8371253;28;20051;-57
2022/08/15 00:21:39;;;;;;;4.93;1.80;;;;;;;;;;8373575;28;20065;-58
2022/08/15 00:25:40;;;;;;;2.45;1.80;;;;;;;;;;8371970;28;20723;-58
2022/08/15 00:29:41;;;;;;;3.80;1.90;;;;;;;;;;8373995;28;20098;-58
2022/08/15 00:33:41;;;;;;;3.13;2.00;;;;;;;;;;8371780;28;20211;-58
2022/08/15 00:37:41;;;;;;;4.03;2.20;;;;;;;;;;8371906;28;20032;-58
2022/08/15 00:41:42;;;;;;;5.68;2.10;;;;;;;;;;8370356;28;20110;-58
2022/08/15 00:45:42;;;;;;;5.32;2.15;;;;;;;;;;8373132;28;20465;-58
2022/08/15 00:49:43;;;;;;;6.28;2.17;;;;;;;;;;8372799;28;20035;-58
2022/08/15 00:53:46;;;;;;;7.22;2.50;;;;;;;;;;8373915;28;20024;-58
2022/08/15 00:57:47;;;;;;;6.95;2.40;;;;;;;;;;8372518;28;20440;-58
2022/08/15 01:01:48;;;;;;;4.97;2.47;;;;;;;;;;8372399;28;20043;-58
2022/08/15 01:05:50;;;;;;;7.00;2.40;;;;;;;;;;8374869;28;20024;-60
2022/08/15 01:09:51;;;;;;;8.93;2.90;;;;;;;;;;8378496;28;20029;-58
2022/08/15 01:13:53;;;;;;;6.70;2.42;;;;;;;;;;8375570;28;20020;-59
2022/08/15 01:17:53;;;;;;;3.42;2.30;;;;;;;;;;8372906;28;20381;-57
2022/08/15 01:21:54;;;;;;;5.18;2.58;;;;;;;;;;8369593;28;20064;-58
2022/08/15 01:25:59;;;;;;;5.75;2.35;;;;;;;;;;8370719;28;20032;-60
2022/08/15 01:29:59;;;;;;;6.55;2.33;;;;;;;;;;8371406;28;20416;-57
2022/08/15 01:33:59;;;;;;;7.15;2.70;;;;;;;;;;8373522;28;20064;-57
2022/08/15 01:38:01;;;;;;;9.90;2.53;;;;;;;;;;8375473;28;20029;-57
2022/08/15 01:42:07;;;;;;;5.15;2.38;;;;;;;;;;8377345;28;20024;-56
2022/08/15 01:46:08;;;;;;;8.02;2.20;;;;;;;;;;8376961;28;20056;-57
2022/08/15 01:50:08;;;;;;;8.70;2.20;;;;;;;;;;8374848;28;20780;-58
2022/08/15 01:54:10;;;;;;;4.20;2.10;;;;;;;;;;8373730;28;20047;-58
2022/08/15 01:58:11;;;;;;;4.00;1.90;;;;;;;;;;8372130;28;20036;-58
2022/08/15 02:02:11;;;;;;;5.65;2.22;;;;;;;;;;8374368;28;20029;-58
2022/08/15 02:06:15;;;;;;;5.60;2.30;;;;;;;;;;8377998;28;20477;-58
2022/08/15 02:10:15;;;;;;;4.72;2.20;;;;;;;;;;8378751;28;20020;-59
2022/08/15 02:14:16;;;;;;;4.38;2.13;;;;;;;;;;8382327;28;20097;-57
2022/08/15 02:18:16;;;;;;;4.32;2.00;;;;;;;;;;8381284;28;20036;-58
2022/08/15 02:22:20;;;;;;;5.70;2.15;;;;;;;;;;8380175;28;20894;-58
2022/08/15 02:26:20;;;;;;;6.88;2.25;;;;;;;;;;8380943;28;20481;-58
2022/08/15 02:30:27;;;;;;;4.30;1.97;;;;;;;;;;8373860;28;21001;-57
2022/08/15 02:34:27;;;;;;;5.70;2.00;;;;;;;;;;8380581;28;20041;-58
2022/08/15 02:38:29;;;;;;;4.80;2.13;;;;;;;;;;8375422;28;20024;-58
2022/08/15 02:42:30;;;;;;;5.80;2.30;;;;;;;;;;8372413;28;20040;-58
2022/08/15 02:46:30;;;;;;;5.60;2.13;;;;;;;;;;8365509;28;20066;-58
2022/08/15 02:50:30;;;;;;;4.10;1.80;;;;;;;;;;8370008;28;20047;-58
2022/08/15 02:54:31;;;;;;;3.90;2.20;;;;;;;;;;8370818;28;20540;-58
2022/08/15 02:58:31;;;;;;;4.72;2.10;;;;;;;;;;8369778;28;20046;-59
2022/08/15 03:02:46;;;;;;;4.15;2.15;;;;;;;;;;8368256;28;20032;-57
2022/08/15 03:06:47;;;;;;;4.22;2.13;;;;;;;;;;8373729;28;20597;-57
2022/08/15 03:10:47;;;;;;;3.20;1.80;;;;;;;;;;8376095;28;20910;-57
2022/08/15 03:14:48;;;;;;;4.57;1.95;;;;;;;;;;8371179;28;20421;-57
2022/08/15 03:18:51;;;;;;;5.28;2.00;;;;;;;;;;8367753;28;20044;-56
2022/08/15 03:22:53;;;;;;;4.22;2.10;;;;;;;;;;8371516;28;20032;-57
2022/08/15 03:26:54;;;;;;;3.92;2.10;;;;;;;;;;8371216;28;20020;-57
2022/08/15 03:30:54;;;;;;;8.18;2.20;;;;;;;;;;8367141;28;20920;-57
2022/08/15 03:34:55;;;;;;;4.63;2.30;;;;;;;;;;8372998;28;20028;-57
2022/08/15 03:38:55;;;;;;;4.13;2.33;;;;;;;;;;8372992;28;20360;-57
2022/08/15 03:43:15;;;;;;;4.67;2.23;;;;;;;;;;8372194;28;20036;-56
2022/08/15 03:47:16;;;;;;;6.00;2.40;;;;;;;;;;8370509;28;20102;-57
2022/08/15 03:51:18;;;;;;;4.28;2.47;;;;;;;;;;8371618;28;20836;-57
2022/08/15 03:55:20;;;;;;;4.53;2.10;;;;;;;;;;8373991;28;20081;-57
2022/08/15 03:59:20;;;;;;;5.03;2.55;;;;;;;;;;8373303;28;20031;-56
2022/08/15 04:03:22;;;;;;;5.95;2.63;;;;;;;;;;8369933;28;20131;-57
2022/08/15 04:07:23;;;;;;;6.28;2.55;;;;;;;;;;8372927;28;20039;-57
2022/08/15 04:11:24;;;;;;;2.63;2.15;;;;;;;;;;8371015;28;20131;-57
2022/08/15 04:15:27;;;;;;;4.35;2.20;;;;;;;;;;8371564;28;20040;-58
2022/08/15 04:19:27;;;;;;;3.90;2.38;;;;;;;;;;8368833;28;20107;-57
2022/08/15 04:23:28;;;;;;;12.93;2.58;;;;;;;;;;8372778;28;20020;-61
2022/08/15 04:27:28;;;;;;;4.47;2.17;;;;;;;;;;8374451;28;20127;-57
2022/08/15 04:31:30;;;;;;;4.43;2.38;;;;;;;;;;8377022;28;20112;-59
2022/08/15 04:35:30;;;;;;;6.35;2.65;;;;;;;;;;8375214;28;20080;-57
2022/08/15 04:39:30;;;;;;;4.40;2.43;;;;;;;;;;8379184;28;20035;-57
2022/08/15 04:43:31;;;;;;;4.57;2.47;;;;;;;;;;8377424;28;20298;-57
2022/08/15 04:47:34;;;;;;;6.32;2.50;;;;;;;;;;8376405;28;20071;-57
2022/08/15 04:51:37;;;;;;;8.77;3.05;;;;;;;;;;8376336;28;20111;-57
2022/08/15 04:55:41;;;;;;;4.78;3.08;;;;;;;;;;8377574;28;20099;-56
2022/08/15 04:59:41;;;;;;;7.13;2.78;;;;;;;;;;8376729;28;20031;-56
2022/08/15 05:03:43;;;;;;;9.88;2.90;;;;;;;;;;8377085;28;20056;-55
2022/08/15 05:07:43;;;;;;;10.75;3.15;;;;;;;;;;8377580;28;20032;-57
2022/08/15 05:11:43;;;;;;;11.73;3.47;;;;;;;;;;8379061;28;20020;-56
2022/08/15 05:15:44;;;;;;;6.67;3.00;;;;;;;;;;8385569;28;20582;-56
2022/08/15 05:19:44;;;;;;;10.75;3.05;;;;;;;;;;8385630;28;20021;-56
2022/08/15 05:23:44;;;;;;;7.07;2.83;;;;;;;;;;8389441;28;20371;-56
2022/08/15 05:27:44;;;;;;;5.50;2.88;;;;;;;;;;8382386;28;20089;-56
2022/08/15 05:31:45;;;;;;;4.22;2.45;;;;;;;;;;8381869;28;20082;-57
2022/08/15 05:35:49;;;;;;;5.90;2.80;;;;;;;;;;8381741;28;20109;-57
2022/08/15 05:39:53;;;;;;;9.00;2.97;;;;;;;;;;8384168;28;20016;-57
2022/08/15 05:44:02;;;;;;;7.57;2.60;;;;;;;;;;8377657;28;20384;-57
2022/08/15 05:48:05;;;;;;;5.20;2.90;;;;;;;;;;8373129;28;20040;-57
2022/08/15 05:52:24;;;;;;;4.25;2.58;;;;;;;;;;8370425;28;20043;-57
2022/08/15 05:56:24;;;;;;;6.18;2.80;;;;;;;;;;8370256;28;20050;-57
2022/08/15 06:00:25;;;;;;;5.70;2.90;;;;;;;;;;8374699;28;20045;-57
2022/08/15 06:04:35;;;;;;;5.63;2.90;;;;;;;;;;8375026;28;20063;-56
2022/08/15 06:08:37;;;;;;;5.85;2.88;;;;;;;;;;8381569;28;20892;-57
2022/08/15 06:12:46;;;;;;;7.43;2.40;;;;;;;;;;8383756;28;20024;-56
2022/08/15 06:16:52;;;;;;;7.18;2.75;;;;;;;;;;8387706;28;20041;-56
2022/08/15 06:20:56;;;;;;;6.25;2.60;;;;;;;;;;8389646;28;20028;-57
2022/08/15 06:24:56;;;;;;;4.75;2.80;;;;;;;;;;8383408;28;20028;-57
2022/08/15 06:28:58;;;;;;;4.72;2.38;;;;;;;;;;8379450;28;20408;-56
2022/08/15 06:33:14;;;;;;;4.28;2.42;;;;;;;;;;8388566;28;20097;-56
2022/08/15 06:37:36;;;;;;;12.75;3.05;;;;;;;;;;8388036;28;20053;-56
2022/08/15 06:41:43;;;;;;;4.38;2.55;;;;;;;;;;8391637;28;20783;-56
2022/08/15 06:45:46;;;;;;;7.03;2.92;;;;;;;;;;8387603;28;20369;-56
2022/08/15 06:49:49;;;;;;;4.85;2.60;;;;;;;;;;8386320;28;20566;-57
2022/08/15 06:53:51;;;;;;;5.25;3.00;;;;;;;;;;8388045;28;20120;-57
2022/08/15 06:57:59;;;;;;;7.53;2.88;;;;;;;;;;8383529;28;20547;-56
2022/08/15 07:02:10;;;;;;;5.75;3.40;;;;;;;;;;8389378;28;20029;-56
2022/08/15 07:06:12;;;;;;;4.82;3.05;;;;;;;;;;8389601;28;20082;-55
2022/08/15 07:10:28;;;;;;;4.03;3.05;;;;;;;;;;8391010;28;20025;-56
2022/08/15 07:14:42;;;;;;;4.97;2.90;;;;;;;;;;8390720;28;20104;-57
2022/08/15 07:18:49;;;;;;;4.72;2.70;;;;;;;;;;8388889;28;20041;-57
2022/08/15 07:22:51;;;;;;;3.92;2.80;;;;;;;;;;8388432;28;20147;-57
2022/08/15 07:27:05;;;;;;;4.13;2.42;;;;;;;;;;8385380;28;20062;-57
2022/08/15 07:31:13;;;;;;;3.67;2.70;;;;;;;;;;8381051;28;20056;-57
2022/08/15 07:35:13;;;;;;;3.63;2.90;;;;;;;;;;8386313;28;20477;-56
2022/08/15 07:39:30;;;;;;;5.40;2.85;;;;;;;;;;8385353;28;20091;-56
2022/08/15 07:43:32;;;;;;;7.40;2.67;;;;;;;;;;8383415;28;20021;-56
2022/08/15 07:47:34;;;;;;;6.10;2.80;;;;;;;;;;8385149;28;20032;-57
2022/08/15 07:51:40;;;;;;;5.55;2.70;;;;;;;;;;8378710;28;20026;-56
2022/08/15 07:55:40;;;;;;;4.35;2.88;;;;;;;;;;8385423;28;20043;-56
2022/08/15 07:59:40;;;;;;;4.13;2.65;;;;;;;;;;8386801;28;20317;-56
2022/08/15 08:03:47;;;;;;;3.40;2.70;;;;;;;;;;8382026;28;20032;-58
2022/08/15 08:07:49;;;;;;;3.45;2.78;;;;;;;;;;8385497;28;20118;-56
2022/08/15 08:11:54;;;;;;;6.20;3.20;;;;;;;;;;8385570;28;20013;-56
2022/08/15 08:16:12;;;;;;;4.07;2.88;;;;;;;;;;8386853;28;20041;-57
2022/08/15 08:20:17;;;;;;;5.55;3.63;;;;;;;;;;8382604;28;20028;-57
2022/08/15 08:24:30;;;;;;;4.43;3.50;;;;;;;;;;8376584;28;20017;-57
2022/08/15 08:28:44;;;;;;;7.85;3.30;;;;;;;;;;8378094;28;20844;-56
2022/08/15 08:32:44;;;;;;;;;;;;;;;;;;8372378;28;20033;-56
2022/08/15 08:36:52;;;;;;;5.47;3.55;;;;;;;;;;8368926;28;19916;-57
2022/08/15 08:45:23;;;;;;;5.75;4.10;;;;;;;;;;8368734;28;20059;-62
2022/08/15 08:49:38;;;;;;;4.93;4.30;;;;;;;;;;8370086;28;20021;-57
2022/08/15 08:53:56;;;;;;;7.20;4.43;;;;;;;;;;8370360;28;21014;-57
2022/08/15 08:58:18;;;;;;;5.05;4.25;;;;;;;;;;8368158;28;21080;-57
2022/08/15 09:02:35;;;;;;;6.85;4.00;;;;;;;;;;8369920;28;20047;-57
2022/08/15 09:06:38;;;;;;;5.95;3.80;;;;;;;;;;8378660;28;20227;-58
2022/08/15 09:10:40;;;;;;;5.73;3.43;;;;;;;;;;8378679;28;20048;-58
2022/08/15 09:14:41;;;;;;;4.60;3.30;;;;;;;;;;8382952;28;20028;-58
2022/08/15 09:18:49;;;;;;;6.13;3.05;;;;;;;;;;8386662;28;20349;-58
2022/08/15 09:22:50;;;;;;;4.25;3.00;;;;;;;;;;8384169;28;20024;-58
2022/08/15 09:27:05;;;;;;;5.53;3.35;;;;;;;;;;8386765;28;20036;-58
2022/08/15 09:31:21;;;;;;;5.35;2.80;;;;;;;;;;8386582;28;20043;-58
2022/08/15 09:35:27;;;;;;;4.90;2.83;;;;;;;;;;8385717;28;20087;-58
2022/08/15 09:39:27;;;;;;;5.10;2.83;;;;;;;;;;8385641;28;20052;-58
2022/08/15 09:43:30;;;;;;;4.57;2.70;;;;;;;;;;8374938;28;20115;-58
2022/08/15 09:47:49;;;;;;;3.08;2.80;;;;;;;;;;8387474;28;20036;-57
2022/08/15 09:52:13;;;;;;;4.20;2.80;;;;;;;;;;8392504;28;20541;-58
2022/08/15 09:56:17;;;;;;;4.03;3.10;;;;;;;;;;8372194;28;20059;-59
2022/08/15 10:00:21;;;;;;;9.25;3.03;;;;;;;;;;8377891;28;20027;-58
2022/08/15 10:04:40;;;;;;;5.65;3.13;;;;;;;;;;8387868;28;20139;-58
2022/08/15 10:09:03;;;;;;;5.38;3.38;;;;;;;;;;8372693;28;20025;-58
2022/08/15 10:13:04;;;;;;;;;;;;;;;;;;8369367;28;20052;-58
2022/08/15 10:17:22;;;;;;;4.13;2.95;;;;;;;;;;8375279;28;19916;-57
2022/08/15 10:21:29;;;;;;;4.47;3.03;;;;;;;;;;8376500;28;20077;-57
2022/08/15 10:25:29;;;;;;;4.32;2.90;;;;;;;;;;8375024;28;20064;-57
2022/08/15 10:29:30;;;;;;;5.68;3.25;;;;;;;;;;8377194;28;20028;-58
2022/08/15 10:33:33;;;;;;;6.68;3.10;;;;;;;;;;8379600;28;20388;-57
2022/08/15 10:37:39;;;;;;;5.25;4.05;;;;;;;;;;8378606;28;20032;-57
2022/08/15 10:41:59;;;;;;;5.80;3.55;;;;;;;;;;8380306;28;20032;-57
2022/08/15 10:46:03;;;;;;;5.07;3.10;;;;;;;;;;8376887;28;20040;-57
2022/08/15 10:50:12;;;;;;;4.75;3.28;;;;;;;;;;8377443;28;20109;-57
2022/08/15 10:54:12;;;;;;;10.07;3.42;;;;;;;;;;8378051;28;20402;-57
2022/08/15 10:58:22;;;;;;;3.67;3.22;;;;;;;;;;8370036;28;20028;-57
2022/08/15 11:02:46;;;;;;;4.85;3.00;;;;;;;;;;8368610;28;20143;-58
2022/08/15 11:06:48;;;;;;;3.20;2.88;;;;;;;;;;8364072;28;20040;-57
2022/08/15 11:10:49;;;;;;;5.97;3.10;;;;;;;;;;8376337;28;20029;-57
2022/08/15 11:14:54;;;;;;;4.80;3.00;;;;;;;;;;8386741;28;20540;-57
2022/08/15 11:18:55;;;;;;;5.35;2.67;;;;;;;;;;8388025;28;20508;-57
2022/08/15 11:22:58;;;;;;;4.82;2.60;;;;;;;;;;8386255;28;20033;-57
2022/08/15 11:27:08;;;;;;;6.10;2.57;;;;;;;;;;8385602;28;20035;-57
2022/08/15 11:31:16;;;;;;;2.75;2.47;;;;;;;;;;8379452;28;20033;-56
2022/08/15 11:35:21;;;;;;;3.22;2.50;;;;;;;;;;8381978;28;20024;-57
2022/08/15 11:39:22;;;;;;;4.10;2.03;;;;;;;;;;8386941;28;20028;-59
2022/08/15 11:43:23;;;;;;;3.08;1.70;;;;;;;;;;8379445;28;20047;-57
2022/08/15 11:47:23;;;;;;;2.00;1.80;;;;;;;;;;8368580;28;20052;-58
2022/08/15 11:51:25;;;;;;;1.50;1.40;;;;;;;;;;8362864;28;20082;-58
2022/08/15 11:55:26;;;;;;;2.08;1.50;;;;;;;;;;8371043;28;20037;-58
2022/08/15 11:59:28;;;;;;;2.13;1.70;;;;;;;;;;8366565;28;20040;-58
2022/08/15 12:03:31;;;;;;;2.25;1.67;;;;;;;;;;8365502;28;20148;-57
2022/08/15 12:07:32;;;;;;;2.42;1.73;;;;;;;;;;8381859;28;20020;-58
2022/08/15 12:11:38;;;;;;;3.90;1.90;;;;;;;;;;8384290;28;20036;-58
2022/08/15 12:15:41;;;;;;;1.80;1.70;;;;;;;;;;8386152;28;20066;-57
2022/08/15 12:19:46;;;;;;;1.95;1.80;;;;;;;;;;8387134;28;20520;-58
2022/08/15 12:23:52;;;;;;;3.03;1.70;;;;;;;;;;8386330;28;20063;-57
2022/08/15 12:27:52;;;;;;;3.03;1.98;;;;;;;;;;8384775;28;20012;-58
2022/08/15 12:31:53;;;;;;;2.10;1.65;;;;;;;;;;8386925;28;20152;-58
2022/08/15 12:35:53;;;;;;;4.45;2.10;;;;;;;;;;8387743;28;20044;-58
2022/08/15 12:39:56;;;;;;;3.20;2.03;;;;;;;;;;8387867;28;20452;-59
2022/08/15 12:43:56;;;;;;;5.95;1.90;;;;;;;;;;8374629;28;20032;-58
2022/08/15 12:47:56;;;;;;;2.55;1.80;;;;;;;;;;8360148;28;20125;-58
2022/08/15 12:51:57;;;;;;;1.70;1.60;;;;;;;;;;8362146;28;20024;-58
2022/08/15 12:55:58;;;;;;;3.10;1.80;;;;;;;;;;8359251;28;20028;-59
2022/08/15 12:59:59;;;;;;;4.28;1.70;;;;;;;;;;8364097;28;20392;-59
2022/08/15 13:04:04;;;;;;;3.75;1.80;;;;;;;;;;8361695;28;20074;-59
2022/08/15 13:08:05;;;;;;;2.28;1.80;;;;;;;;;;8372937;28;20108;-58
2022/08/15 13:12:05;;;;;;;3.78;1.90;;;;;;;;;;8382146;28;20028;-58
2022/08/15 13:16:07;;;;;;;2.87;2.37;;;;;;;;;;8381643;28;20393;-57
2022/08/15 13:24:26;;;;;;;3.28;2.00;;;;;;;;;;8360056;28;20578;-59
2022/08/15 13:28:26;;;;;;;5.10;2.27;;;;;;;;;;8369963;28;20359;-58
2022/08/15 13:32:27;;;;;;;4.38;2.50;;;;;;;;;;8370794;28;20764;-58
2022/08/15 13:36:28;;;;;;;2.58;1.90;;;;;;;;;;8365754;28;20040;-58
2022/08/15 13:40:29;;;;;;;1.80;1.70;;;;;;;;;;8368456;28;20816;-59
2022/08/15 13:44:31;;;;;;;2.20;2.00;;;;;;;;;;8362912;28;20037;-57
2022/08/15 13:48:34;;;;;;;2.70;1.80;;;;;;;;;;8358511;28;20109;-57
2022/08/15 13:52:34;;;;;;;3.20;2.30;;;;;;;;;;8366202;28;20066;-58
2022/08/15 13:56:34;;;;;;;6.83;2.17;;;;;;;;;;8357984;28;20031;-58
2022/08/15 14:00:35;;;;;;;3.97;2.17;;;;;;;;;;8361701;28;20201;-59
2022/08/15 14:04:38;;;;;;;2.47;1.92;;;;;;;;;;8359284;28;20028;-58
2022/08/15 14:08:39;;;;;;;;;;;;;;;;;;8362271;28;20103;-59
2022/08/15 14:12:41;;;;;;;2.72;2.00;;;;;;;;;;8372971;28;20159;-59
2022/08/15 14:16:43;;;;;;;2.38;2.10;;;;;;;;;;8369484;28;20032;-58
2022/08/15 14:20:44;;;;;;;3.28;2.15;;;;;;;;;;8367976;28;20066;-58
2022/08/15 14:24:47;;;;;;;3.67;2.25;;;;;;;;;;8358129;28;20111;-58
2022/08/15 14:28:47;;;;;;;3.47;2.00;;;;;;;;;;8366002;28;20059;-59
2022/08/15 14:32:48;;;;;;;3.00;2.10;;;;;;;;;;8364302;28;20043;-58
2022/08/15 14:36:49;;;;;;;3.20;2.05;;;;;;;;;;8375888;28;20032;-59
2022/08/15 14:40:49;;;;;;;2.10;1.90;;;;;;;;;;8379097;28;20117;-59
2022/08/15 14:44:50;;;;;;;4.82;2.28;;;;;;;;;;8377207;28;20093;-59
2022/08/15 14:48:50;;;;;;;2.40;2.03;;;;;;;;;;8364859;28;20083;-59
2022/08/15 14:52:50;;;;;;;2.30;2.10;;;;;;;;;;8360537;28;20582;-58
2022/08/15 14:56:50;;;;;;;5.15;2.30;;;;;;;;;;8363192;28;20397;-60
2022/08/15 15:00:51;;;;;;;4.68;2.45;;;;;;;;;;8362990;28;20040;-59
2022/08/15 15:04:51;;;;;;;2.53;2.33;;;;;;;;;;8362492;28;20146;-59
2022/08/15 15:08:52;;;;;;;2.60;2.40;;;;;;;;;;8364618;28;20039;-59
2022/08/15 15:12:55;;;;;;;4.22;2.47;;;;;;;;;;8365927;28;20032;-58
2022/08/15 15:16:57;;;;;;;5.43;2.40;;;;;;;;;;8363260;28;20382;-58
2022/08/15 15:20:57;;;;;;;5.13;2.60;;;;;;;;;;8363666;28;20440;-58
2022/08/15 15:24:57;;;;;;;9.82;2.50;;;;;;;;;;8365110;28;20127;-58
2022/08/15 15:28:58;;;;;;;7.55;2.40;;;;;;;;;;8364958;28;20029;-58
2022/08/15 15:32:58;;;;;;;3.97;2.40;;;;;;;;;;8372412;28;20033;-57
2022/08/15 15:37:00;;;;;;;4.97;2.45;;;;;;;;;;8379725;28;20025;-58
2022/08/15 15:41:01;;;;;;;10.60;2.30;;;;;;;;;;8378392;28;20032;-58
2022/08/15 15:45:02;;;;;;;7.80;2.50;;;;;;;;;;8377923;28;20031;-58
2022/08/15 15:49:03;;;;;;;7.33;2.43;;;;;;;;;;8381231;28;20083;-58
2022/08/15 15:53:13;;;;;;;2.78;2.33;;;;;;;;;;8380846;28;20035;-58
2022/08/15 15:57:13;;;;;;;3.72;2.35;;;;;;;;;;8372792;28;20024;-57
2022/08/15 16:01:15;;;;;;;5.93;2.03;;;;;;;;;;8379509;28;20032;-58
2022/08/15 16:05:20;;;;;;;5.00;2.33;;;;;;;;;;8379206;28;20732;-57
2022/08/15 16:09:21;;;;;;;4.47;1.80;;;;;;;;;;8383602;28;20032;-59
2022/08/15 16:13:25;;;;;;;9.65;2.00;;;;;;;;;;8381196;28;20017;-57
2022/08/15 16:17:29;;;;;;;5.78;1.83;;;;;;;;;;8378401;28;20045;-58
2022/08/15 16:21:49;;;;;;;4.40;1.75;;;;;;;;;;8379527;28;20536;-58
2022/08/15 16:26:00;;;;;;;2.17;1.50;;;;;;;;;;8378230;28;20318;-58
2022/08/15 16:30:09;;;;;;;3.25;1.50;;;;;;;;;;8375900;28;20362;-58
2022/08/15 16:34:13;;;;;;;2.08;1.33;;;;;;;;;;8374744;28;20037;-57
2022/08/15 16:38:18;;;;;;;2.90;1.55;;;;;;;;;;8379159;28;20012;-58
2022/08/15 16:42:22;;;;;;;2.80;1.02;;;;;;;;;;8375894;28;20544;-57
2022/08/15 16:46:53;;;;;;;1.88;1.40;;;;;;;;;;8370835;28;20094;-58
2022/08/15 16:51:05;;;;;;;1.42;1.33;;;;;;;;;;8376568;28;20042;-58
2022/08/15 16:55:24;;;;;;;2.53;1.20;;;;;;;;;;8377766;28;20024;-58
2022/08/15 16:59:33;;;;;;;1.95;1.10;;;;;;;;;;8379081;28;20016;-59
2022/08/15 17:03:33;;;;;;;2.00;1.10;;;;;;;;;;8363755;28;20123;-58
2022/08/15 17:07:36;;;;;;;1.77;1.30;;;;;;;;;;8366326;28;20021;-59
2022/08/15 17:11:38;;;;;;;3.00;1.60;;;;;;;;;;8369277;28;20023;-58
2022/08/15 17:15:50;;;;;;;2.60;1.55;;;;;;;;;;8371979;28;20120;-58
2022/08/15 17:19:56;;;;;;;2.10;1.70;;;;;;;;;;8377063;28;20043;-58
2022/08/15 17:23:59;;;;;;;2.85;1.98;;;;;;;;;;8375398;28;20028;-58
2022/08/15 17:28:02;;;;;;;2.00;1.80;;;;;;;;;;8373545;28;20020;-58
2022/08/15 17:32:02;;;;;;;;;;;;;;;;;;8380919;28;20033;-57
2022/08/15 17:36:03;;;;;;;4.60;1.85;;;;;;;;;;8381173;28;20073;-58
2022/08/15 17:40:15;;;;;;;4.05;1.70;;;;;;;;;;8380365;28;20047;-58
2022/08/15 17:44:23;;;;;;;2.60;1.73;;;;;;;;;;8381363;28;20032;-58
2022/08/15 17:48:26;;;;;;;1.60;1.50;;;;;;;;;;8379485;28;20029;-58
2022/08/15 17:52:30;;;;;;;1.67;1.35;;;;;;;;;;8373501;28;20066;-59
2022/08/15 17:56:39;;;;;;;2.10;1.52;;;;;;;;;;8369081;28;20566;-58
2022/08/15 18:00:39;;;;;;;1.90;1.45;;;;;;;;;;8375038;28;20099;-59
2022/08/15 18:04:40;;;;;;;2.97;1.50;;;;;;;;;;8375157;28;20110;-58
2022/08/15 18:08:43;;;;;;;1.83;1.60;;;;;;;;;;8380167;28;20084;-59
2022/08/15 18:12:44;;;;;;;1.40;1.30;;;;;;;;;;8384675;28;20025;-58
2022/08/15 18:16:55;;;;;;;1.60;1.45;;;;;;;;;;8383851;28;20277;-58
2022/08/15 18:20:57;;;;;;;1.52;1.40;;;;;;;;;;8384386;28;20024;-58
2022/08/15 18:24:59;;;;;;;2.17;1.60;;;;;;;;;;8382796;28;20036;-58
2022/08/15 18:29:01;;;;;;;2.22;1.42;;;;;;;;;;8384380;28;20024;-57
2022/08/15 18:33:01;;;;;;;1.83;1.50;;;;;;;;;;8384456;28;20050;-57
2022/08/15 18:37:02;;;;;;;1.52;1.17;;;;;;;;;;8389065;28;20020;-57
2022/08/15 18:41:13;;;;;;;1.58;1.30;;;;;;;;;;8385658;28;20091;-58
2022/08/15 18:45:24;;;;;;;1.27;1.17;;;;;;;;;;8385903;28;20135;-59
2022/08/15 18:49:24;;;;;;;1.27;1.17;;;;;;;;;;8385436;28;20122;-59
2022/08/15 18:53:25;;;;;;;1.73;1.40;;;;;;;;;;8383607;28;20028;-58
2022/08/15 18:57:30;;;;;;;5.63;1.20;;;;;;;;;;8381473;28;20485;-57
2022/08/15 19:01:31;;;;;;;2.22;1.25;;;;;;;;;;8383200;28;20090;-57
2022/08/15 19:05:41;;;;;;;2.28;1.40;;;;;;;;;;8383447;28;20111;-57
2022/08/15 19:09:42;;;;;;;2.25;1.40;;;;;;;;;;8381808;28;20029;-57
2022/08/15 19:13:45;;;;;;;1.88;1.38;;;;;;;;;;8379734;28;20028;-57
2022/08/15 19:17:51;;;;;;;1.60;1.50;;;;;;;;;;8378602;28;20420;-57
2022/08/15 19:21:53;;;;;;;2.35;1.40;;;;;;;;;;8372123;28;20111;-57
2022/08/15 19:25:55;;;;;;;2.37;1.70;;;;;;;;;;8377074;28;20043;-57
2022/08/15 19:30:03;;;;;;;1.40;1.30;;;;;;;;;;8375156;28;20564;-56
2022/08/15 19:34:15;;;;;;;2.63;1.60;;;;;;;;;;8371665;28;20167;-57
2022/08/15 19:38:41;;;;;;;2.13;1.48;;;;;;;;;;8380093;28;20064;-57
2022/08/15 19:42:41;;;;;;;2.28;1.50;;;;;;;;;;8369014;28;20051;-57
2022/08/15 19:46:48;;;;;;;2.35;1.60;;;;;;;;;;8370058;28;20048;-57
2022/08/15 19:55:28;;;;;;;1.77;1.40;;;;;;;;;;8373823;28;20028;-57
2022/08/15 19:59:34;;;;;;;1.70;1.60;;;;;;;;;;8377985;28;20028;-57
2022/08/15 20:03:39;;;;;;;1.73;1.63;;;;;;;;;;8370137;28;20036;-57
2022/08/15 20:07:48;;;;;;;2.55;1.77;;;;;;;;;;8368395;28;20089;-57
2022/08/15 20:11:51;;;;;;;2.10;1.63;;;;;;;;;;8361989;28;20341;-57
2022/08/15 20:15:57;;;;;;;1.90;1.60;;;;;;;;;;8365257;28;20040;-57
2022/08/15 20:20:10;;;;;;;3.08;1.70;;;;;;;;;;8366326;28;20044;-57
2022/08/15 20:24:15;;;;;;;2.05;1.85;;;;;;;;;;8363453;28;20060;-57
2022/08/15 20:28:22;;;;;;;2.30;1.80;;;;;;;;;;8365815;28;20176;-57
2022/08/15 20:32:36;;;;;;;2.90;1.80;;;;;;;;;;8364237;28;20580;-57
2022/08/15 20:36:42;;;;;;;1.80;1.70;;;;;;;;;;8367784;28;20024;-57
2022/08/15 20:40:45;;;;;;;2.33;1.60;;;;;;;;;;8367803;28;20036;-57
2022/08/15 20:44:51;;;;;;;3.38;1.75;;;;;;;;;;8365562;28;20100;-57
2022/08/15 20:48:55;;;;;;;1.90;1.67;;;;;;;;;;8364914;28;20040;-57
2022/08/15 20:52:56;;;;;;;2.42;1.77;;;;;;;;;;8361799;28;20028;-56
2022/08/15 20:56:57;;;;;;;2.00;1.50;;;;;;;;;;8361234;28;21540;-57
2022/08/15 21:01:17;;;;;;;2.63;1.63;;;;;;;;;;8360827;28;20066;-57
2022/08/15 21:05:20;;;;;;;3.17;1.75;;;;;;;;;;8361396;28;20032;-57
2022/08/15 21:09:20;;;;;;;2.28;1.70;;;;;;;;;;8360816;28;20435;-57
2022/08/15 21:13:31;;;;;;;2.10;1.88;;;;;;;;;;8357434;28;20063;-57
2022/08/15 21:17:54;;;;;;;1.98;1.73;;;;;;;;;;8360657;28;20056;-57
2022/08/15 21:21:54;;;;;;;1.63;1.52;;;;;;;;;;8359683;28;20062;-57
2022/08/15 21:25:56;;;;;;;3.63;1.90;;;;;;;;;;8359679;28;20024;-57
2022/08/15 21:30:14;;;;;;;2.00;1.70;;;;;;;;;;8360265;28;20999;-57
2022/08/15 21:34:20;;;;;;;2.42;1.73;;;;;;;;;;8360780;28;20554;-57
2022/08/15 21:38:51;;;;;;;2.15;1.85;;;;;;;;;;8358551;28;20120;-57
2022/08/15 21:42:52;;;;;;;1.95;1.70;;;;;;;;;;8356305;28;20039;-57
2022/08/15 21:46:52;;;;;;;1.73;1.63;;;;;;;;;;8364101;28;20055;-57
2022/08/15 21:50:54;;;;;;;2.05;1.80;;;;;;;;;;8361602;28;20443;-57
2022/08/15 21:54:58;;;;;;;2.80;1.92;;;;;;;;;;8362599;28;20025;-57
2022/08/15 21:59:07;;;;;;;2.45;2.25;;;;;;;;;;8363541;28;20590;-57
2022/08/15 22:03:17;;;;;;;3.28;2.25;;;;;;;;;;8364171;28;20106;-57
2022/08/15 22:07:18;;;;;;;2.80;2.45;;;;;;;;;;8366740;28;20348;-57
2022/08/15 22:11:20;;;;;;;3.95;2.40;;;;;;;;;;8373031;28;20107;-57
2022/08/15 22:15:21;;;;;;;2.40;2.20;;;;;;;;;;8366493;28;20104;-57
2022/08/15 22:19:21;;;;;;;2.55;2.00;;;;;;;;;;8365806;28;20902;-57
2022/08/15 22:23:22;;;;;;;2.17;2.08;;;;;;;;;;8371994;28;20025;-57
2022/08/15 22:27:23;;;;;;;4.00;2.40;;;;;;;;;;8363322;28;20024;-56
2022/08/15 22:31:23;;;;;;;2.72;2.53;;;;;;;;;;8375500;28;20475;-57
2022/08/15 22:35:23;;;;;;;2.97;2.40;;;;;;;;;;8374058;28;20059;-57
2022/08/15 22:39:24;;;;;;;4.40;2.63;;;;;;;;;;8373281;28;20456;-57
2022/08/15 22:43:26;;;;;;;3.55;2.47;;;;;;;;;;8369979;28;20291;-57
2022/08/15 22:47:27;;;;;;;3.97;2.80;;;;;;;;;;8369832;28;20071;-57
2022/08/15 22:51:27;;;;;;;6.28;2.88;;;;;;;;;;8377165;28;20308;-57
2022/08/15 22:55:33;;;;;;;3.00;2.70;;;;;;;;;;8373208;28;20148;-57
2022/08/15 22:59:40;;;;;;;3.88;2.72;;;;;;;;;;8382595;28;20493;-57
2022/08/15 23:03:40;;;;;;;3.95;2.80;;;;;;;;;;8373731;28;20637;-57
2022/08/15 23:07:43;;;;;;;2.90;2.50;;;;;;;;;;8378557;28;20285;-57
2022/08/15 23:11:46;;;;;;;3.15;2.75;;;;;;;;;;8384410;28;20028;-56
2022/08/15 23:15:58;;;;;;;4.38;3.00;;;;;;;;;;8377386;28;20429;-57
2022/08/15 23:20:00;;;;;;;3.53;2.85;;;;;;;;;;8379649;28;20111;-57
2022/08/15 23:24:03;;;;;;;3.25;2.58;;;;;;;;;;8374829;28;20456;-57
2022/08/15 23:28:03;;;;;;;4.07;2.42;;;;;;;;;;8366456;28;20128;-57
2022/08/15 23:32:11;;;;;;;3.28;2.50;;;;;;;;;;8368183;28;20040;-57
2022/08/15 23:36:11;;;;;;;2.78;2.55;;;;;;;;;;8374483;28;20091;-57
2022/08/15 23:40:12;;;;;;;3.10;2.80;;;;;;;;;;8375721;28;20501;-57
2022/08/15 23:44:13;;;;;;;2.97;2.67;;;;;;;;;;8374917;28;20024;-57
2022/08/15 23:48:14;;;;;;;3.95;2.80;;;;;;;;;;8372882;28;20032;-57
2022/08/15 23:52:14;;;;;;;2.85;2.65;;;;;;;;;;8375443;28;20488;-57
2022/08/15 23:56:14;;;;;;;4.38;2.60;;;;;;;;;;8368880;28;20059;-57
